sensor_id;sensor_type;location;lat;lon;timestamp;temperature;humidity
10986;DHT22;5546;48.714;8.738;2024-03-23T00:53:25;10.30;99.90
10986;DHT22;5546;48.714;8.738;2024-03-23T00:55:51;10.30;99.90
10986;DHT22;5546;48.714;8.738;2024-03-23T00:58:17;10.20;99.90
10986;DHT22;5546;48.714;8.738;2024-03-23T01:00:42;10.20;99.90
10986;DHT22;5546;48.714;8.738;2024-03-23T01:03:08;10.60;99.90
10986;DHT22;5546;48.714;8.738;2024-03-23T01:05:34;10.60;99.90
10986;DHT22;5546;48.714;8.738;2024-03-23T01:14:16;9.60;99.90
10986;DHT22;5546;48.714;8.738;2024-03-23T01:16:41;9.90;99.90
10986;DHT22;5546;48.714;8.738;2024-03-23T01:19:07;9.90;99.90
10986;DHT22;5546;48.714;8.738;2024-03-23T01:21:34;10.30;99.90
10986;DHT22;5546;48.714;8.738;2024-03-23T01:23:59;10.60;99.90
10986;DHT22;5546;48.714;8.738;2024-03-23T01:26:25;10.40;99.90
10986;DHT22;5546;48.714;8.738;2024-03-23T01:28:50;10.80;99.90
10986;DHT22;5546;48.714;8.738;2024-03-23T01:31:16;10.50;99.90
10986;DHT22;5546;48.714;8.738;2024-03-23T01:33:41;10.50;99.90
10986;DHT22;5546;48.714;8.738;2024-03-23T01:36:07;10.40;99.90
10986;DHT22;5546;48.714;8.738;2024-03-23T01:38:32;10.20;99.90
10986;DHT22;5546;48.714;8.738;2024-03-23T01:40:58;10.50;99.90
10986;DHT22;5546;48.714;8.738;2024-03-23T01:43:24;10.70;99.90
10986;DHT22;5546;48.714;8.738;2024-03-23T01:45:50;10.90;99.90
10986;DHT22;5546;48.714;8.738;2024-03-23T01:48:15;11.00;99.90
10986;DHT22;5546;48.714;8.738;2024-03-23T01:50:41;11.30;99.20
10986;DHT22;5546;48.714;8.738;2024-03-23T01:53:07;11.10;99.40
10986;DHT22;5546;48.714;8.738;2024-03-23T01:55:33;11.10;99.30
10986;DHT22;5546;48.714;8.738;2024-03-23T02:00:25;11.10;99.50
10986;DHT22;5546;48.714;8.738;2024-03-23T02:02:52;10.90;99.40
10986;DHT22;5546;48.714;8.738;2024-03-23T02:05:17;11.10;99.30
10986;DHT22;5546;48.714;8.738;2024-03-23T02:07:43;10.90;99.50
10986;DHT22;5546;48.714;8.738;2024-03-23T02:10:10;10.80;99.70
10986;DHT22;5546;48.714;8.738;2024-03-23T02:12:36;10.70;99.70
10986;DHT22;5546;48.714;8.738;2024-03-23T02:15:02;10.90;99.50
10986;DHT22;5546;48.714;8.738;2024-03-23T02:17:30;10.80;99.50
10986;DHT22;5546;48.714;8.738;2024-03-23T02:19:55;10.80;99.90
10986;DHT22;5546;48.714;8.738;2024-03-23T02:22:21;10.70;99.50
10986;DHT22;5546;48.714;8.738;2024-03-23T02:24:46;10.80;99.70
10986;DHT22;5546;48.714;8.738;2024-03-23T02:27:12;10.90;99.70
10986;DHT22;5546;48.714;8.738;2024-03-23T02:29:38;10.70;99.90
10986;DHT22;5546;48.714;8.738;2024-03-23T02:32:03;10.60;99.90
10986;DHT22;5546;48.714;8.738;2024-03-23T02:34:29;10.70;99.90
10986;DHT22;5546;48.714;8.738;2024-03-23T02:39:20;11.00;99.50
10986;DHT22;5546;48.714;8.738;2024-03-23T02:41:46;11.00;99.60
10986;DHT22;5546;48.714;8.738;2024-03-23T02:44:13;10.90;99.80
10986;DHT22;5546;48.714;8.738;2024-03-23T02:46:39;10.70;99.90
10986;DHT22;5546;48.714;8.738;2024-03-23T02:49:05;10.60;99.70
10986;DHT22;5546;48.714;8.738;2024-03-23T02:51:31;10.50;99.80
10986;DHT22;5546;48.714;8.738;2024-03-23T02:53:56;10.00;99.90
10986;DHT22;5546;48.714;8.738;2024-03-23T02:56:22;10.20;99.90
10986;DHT22;5546;48.714;8.738;2024-03-23T02:58:48;10.30;99.90
10986;DHT22;5546;48.714;8.738;2024-03-23T03:01:14;10.30;99.90
10986;DHT22;5546;48.714;8.738;2024-03-23T03:06:05;10.00;99.90
10986;DHT22;5546;48.714;8.738;2024-03-23T03:08:31;10.00;99.90
10986;DHT22;5546;48.714;8.738;2024-03-23T03:10:56;9.90;99.90
10986;DHT22;5546;48.714;8.738;2024-03-23T03:13:22;10.20;99.90
10986;DHT22;5546;48.714;8.738;2024-03-23T03:15:47;10.00;99.90
10986;DHT22;5546;48.714;8.738;2024-03-23T03:18:13;9.90;99.90
10986;DHT22;5546;48.714;8.738;2024-03-23T03:20:41;10.10;99.90
10986;DHT22;5546;48.714;8.738;2024-03-23T03:23:07;10.00;99.90
10986;DHT22;5546;48.714;8.738;2024-03-23T03:25:33;10.40;99.90
10986;DHT22;5546;48.714;8.738;2024-03-23T03:27:59;10.40;99.80
10986;DHT22;5546;48.714;8.738;2024-03-23T03:30:24;10.10;99.90
10986;DHT22;5546;48.714;8.738;2024-03-23T03:32:52;9.50;99.90
10986;DHT22;5546;48.714;8.738;2024-03-23T03:35:18;9.30;99.90
10986;DHT22;5546;48.714;8.738;2024-03-23T03:37:44;9.00;99.90
10986;DHT22;5546;48.714;8.738;2024-03-23T03:40:10;8.90;99.90
10986;DHT22;5546;48.714;8.738;2024-03-23T03:42:36;9.20;99.90
10986;DHT22;5546;48.714;8.738;2024-03-23T03:45:02;9.20;99.90
10986;DHT22;5546;48.714;8.738;2024-03-23T03:47:29;9.00;99.90
10986;DHT22;5546;48.714;8.738;2024-03-23T03:49:55;9.10;99.90
10986;DHT22;5546;48.714;8.738;2024-03-23T03:52:20;9.60;99.90
10986;DHT22;5546;48.714;8.738;2024-03-23T03:54:46;9.90;99.90
10986;DHT22;5546;48.714;8.738;2024-03-23T03:57:12;10.10;99.90
10986;DHT22;5546;48.714;8.738;2024-03-23T04:02:03;10.20;99.90
10986;DHT22;5546;48.714;8.738;2024-03-23T04:04:29;10.30;99.90
10986;DHT22;5546;48.714;8.738;2024-03-23T04:07:01;10.30;99.90
10986;DHT22;5546;48.714;8.738;2024-03-23T04:11:53;10.30;99.90
10986;DHT22;5546;48.714;8.738;2024-03-23T04:14:19;10.30;99.90
10986;DHT22;5546;48.714;8.738;2024-03-23T04:16:44;10.30;99.90
10986;DHT22;5546;48.714;8.738;2024-03-23T04:21:37;10.60;99.90
10986;DHT22;5546;48.714;8.738;2024-03-23T04:24:03;10.90;99.90
10986;DHT22;5546;48.714;8.738;2024-03-23T04:28:55;11.00;99.90
10986;DHT22;5546;48.714;8.738;2024-03-23T04:31:20;10.90;99.90
10986;DHT22;5546;48.714;8.738;2024-03-23T04:33:47;10.70;99.90
10986;DHT22;5546;48.714;8.738;2024-03-23T04:36:12;10.80;99.90
10986;DHT22;5546;48.714;8.738;2024-03-23T04:38:38;10.80;99.90
10986;DHT22;5546;48.714;8.738;2024-03-23T04:41:03;10.90;99.90
10986;DHT22;5546;48.714;8.738;2024-03-23T04:43:29;11.10;99.90
10986;DHT22;5546;48.714;8.738;2024-03-23T04:45:55;11.10;99.90
10986;DHT22;5546;48.714;8.738;2024-03-23T04:48:21;10.90;99.90
10986;DHT22;5546;48.714;8.738;2024-03-23T04:50:48;11.00;99.90
10986;DHT22;5546;48.714;8.738;2024-03-23T04:53:14;10.80;99.90
10986;DHT22;5546;48.714;8.738;2024-03-23T04:55:41;10.80;99.90
10986;DHT22;5546;48.714;8.738;2024-03-23T04:58:06;10.80;99.90
10986;DHT22;5546;48.714;8.738;2024-03-23T05:02:58;10.60;99.90
10986;DHT22;5546;48.714;8.738;2024-03-23T05:05:23;10.90;99.90
10986;DHT22;5546;48.714;8.738;2024-03-23T05:07:49;10.70;99.90
10986;DHT22;5546;48.714;8.738;2024-03-23T05:10:14;10.70;99.90
10986;DHT22;5546;48.714;8.738;2024-03-23T05:12:40;11.10;99.90
10986;DHT22;5546;48.714;8.738;2024-03-23T05:15:06;11.40;99.90
10986;DHT22;5546;48.714;8.738;2024-03-23T05:17:33;11.60;99.90
10986;DHT22;5546;48.714;8.738;2024-03-23T05:19:59;11.50;99.90
10986;DHT22;5546;48.714;8.738;2024-03-23T05:22:24;11.80;99.90
10986;DHT22;5546;48.714;8.738;2024-03-23T05:24:50;12.10;99.90
10986;DHT22;5546;48.714;8.738;2024-03-23T05:27:15;12.00;99.90
10986;DHT22;5546;48.714;8.738;2024-03-23T05:29:41;12.20;99.90
10986;DHT22;5546;48.714;8.738;2024-03-23T05:32:07;12.40;99.90
10986;DHT22;5546;48.714;8.738;2024-03-23T05:34:32;12.30;99.90
10986;DHT22;5546;48.714;8.738;2024-03-23T05:39:24;12.20;99.90
10986;DHT22;5546;48.714;8.738;2024-03-23T05:41:50;12.10;99.90
10986;DHT22;5546;48.714;8.738;2024-03-23T05:44:16;11.70;99.90
10986;DHT22;5546;48.714;8.738;2024-03-23T05:46:42;11.80;99.90
10986;DHT22;5546;48.714;8.738;2024-03-23T05:49:08;11.50;99.90
10986;DHT22;5546;48.714;8.738;2024-03-23T05:51:34;11.60;99.90
10986;DHT22;5546;48.714;8.738;2024-03-23T05:54:00;11.40;99.90
10986;DHT22;5546;48.714;8.738;2024-03-23T05:56:26;11.50;99.90
10986;DHT22;5546;48.714;8.738;2024-03-23T05:58:51;11.50;99.90
10986;DHT22;5546;48.714;8.738;2024-03-23T06:01:17;11.60;99.90
10986;DHT22;5546;48.714;8.738;2024-03-23T06:03:43;11.80;99.90
10986;DHT22;5546;48.714;8.738;2024-03-23T06:06:09;12.00;99.90
10986;DHT22;5546;48.714;8.738;2024-03-23T06:08:37;12.10;99.90
10986;DHT22;5546;48.714;8.738;2024-03-23T06:11:03;11.70;99.90
10986;DHT22;5546;48.714;8.738;2024-03-23T06:13:29;11.30;99.90
10986;DHT22;5546;48.714;8.738;2024-03-23T06:15:55;10.80;99.90
10986;DHT22;5546;48.714;8.738;2024-03-23T06:18:21;10.80;99.90
10986;DHT22;5546;48.714;8.738;2024-03-23T06:20:47;11.00;99.90
10986;DHT22;5546;48.714;8.738;2024-03-23T06:23:12;11.30;99.90
10986;DHT22;5546;48.714;8.738;2024-03-23T06:25:38;11.60;99.90
10986;DHT22;5546;48.714;8.738;2024-03-23T06:28:04;11.60;99.90
10986;DHT22;5546;48.714;8.738;2024-03-23T06:30:30;11.60;99.90
10986;DHT22;5546;48.714;8.738;2024-03-23T06:32:57;11.60;99.90
10986;DHT22;5546;48.714;8.738;2024-03-23T06:37:48;11.30;99.90
10986;DHT22;5546;48.714;8.738;2024-03-23T06:40:14;11.30;99.90
10986;DHT22;5546;48.714;8.738;2024-03-23T06:42:40;11.10;99.90
10986;DHT22;5546;48.714;8.738;2024-03-23T06:45:06;11.20;99.90
10986;DHT22;5546;48.714;8.738;2024-03-23T06:49:59;11.30;99.90
10986;DHT22;5546;48.714;8.738;2024-03-23T06:52:27;11.10;99.90
10986;DHT22;5546;48.714;8.738;2024-03-23T06:54:53;11.20;99.90
10986;DHT22;5546;48.714;8.738;2024-03-23T06:57:18;11.60;99.90
10986;DHT22;5546;48.714;8.738;2024-03-23T06:59:44;11.70;99.90
10986;DHT22;5546;48.714;8.738;2024-03-23T07:02:09;11.80;99.90
10986;DHT22;5546;48.714;8.738;2024-03-23T07:04:35;11.50;99.90
10986;DHT22;5546;48.714;8.738;2024-03-23T07:07:01;11.40;99.90
10986;DHT22;5546;48.714;8.738;2024-03-23T07:09:28;11.40;99.90
10986;DHT22;5546;48.714;8.738;2024-03-23T07:11:57;11.30;99.90
10986;DHT22;5546;48.714;8.738;2024-03-23T07:14:23;11.30;99.90
10986;DHT22;5546;48.714;8.738;2024-03-23T07:16:50;11.30;99.90
10986;DHT22;5546;48.714;8.738;2024-03-23T07:19:16;11.30;99.90
10986;DHT22;5546;48.714;8.738;2024-03-23T07:21:43;11.30;99.90
10986;DHT22;5546;48.714;8.738;2024-03-23T07:24:09;10.80;99.90
10986;DHT22;5546;48.714;8.738;2024-03-23T07:26:34;11.00;99.90
10986;DHT22;5546;48.714;8.738;2024-03-23T07:29:00;11.20;99.90
10986;DHT22;5546;48.714;8.738;2024-03-23T07:31:25;10.80;99.90
10986;DHT22;5546;48.714;8.738;2024-03-23T07:33:51;10.70;99.90
10986;DHT22;5546;48.714;8.738;2024-03-23T07:36:16;10.90;99.90
10986;DHT22;5546;48.714;8.738;2024-03-23T07:38:42;11.10;99.90
10986;DHT22;5546;48.714;8.738;2024-03-23T07:41:12;11.00;99.90
10986;DHT22;5546;48.714;8.738;2024-03-23T07:46:08;10.90;99.90
10986;DHT22;5546;48.714;8.738;2024-03-23T07:48:33;10.90;99.90
10986;DHT22;5546;48.714;8.738;2024-03-23T07:51:10;10.90;99.90
10986;DHT22;5546;48.714;8.738;2024-03-23T07:53:36;10.70;99.90
10986;DHT22;5546;48.714;8.738;2024-03-23T07:56:09;10.90;99.90
10986;DHT22;5546;48.714;8.738;2024-03-23T07:58:38;11.10;99.90
10986;DHT22;5546;48.714;8.738;2024-03-23T08:01:06;11.00;99.90
10986;DHT22;5546;48.714;8.738;2024-03-23T08:03:35;11.30;99.60
10986;DHT22;5546;48.714;8.738;2024-03-23T08:06:17;11.00;99.10
10986;DHT22;5546;48.714;8.738;2024-03-23T08:08:46;11.20;99.70
10986;DHT22;5546;48.714;8.738;2024-03-23T08:11:12;11.90;98.20
10986;DHT22;5546;48.714;8.738;2024-03-23T08:13:41;11.40;97.00
10986;DHT22;5546;48.714;8.738;2024-03-23T08:16:07;11.50;97.70
10986;DHT22;5546;48.714;8.738;2024-03-23T08:18:34;11.80;97.20
10986;DHT22;5546;48.714;8.738;2024-03-23T08:21:01;11.90;96.50
10986;DHT22;5546;48.714;8.738;2024-03-23T08:23:27;11.50;96.10
10986;DHT22;5546;48.714;8.738;2024-03-23T08:26:04;11.30;96.30
10986;DHT22;5546;48.714;8.738;2024-03-23T08:28:30;11.20;96.50
10986;DHT22;5546;48.714;8.738;2024-03-23T08:30:56;11.30;96.70
10986;DHT22;5546;48.714;8.738;2024-03-23T08:33:22;11.30;97.00
10986;DHT22;5546;48.714;8.738;2024-03-23T08:35:57;11.40;95.70
10986;DHT22;5546;48.714;8.738;2024-03-23T08:38:25;11.60;96.10
10986;DHT22;5546;48.714;8.738;2024-03-23T08:40:58;11.40;95.70
10986;DHT22;5546;48.714;8.738;2024-03-23T08:43:24;11.40;96.00
10986;DHT22;5546;48.714;8.738;2024-03-23T08:48:17;10.80;96.90
10986;DHT22;5546;48.714;8.738;2024-03-23T08:50:43;10.60;97.30
10986;DHT22;5546;48.714;8.738;2024-03-23T08:53:09;10.60;98.30
10986;DHT22;5546;48.714;8.738;2024-03-23T08:55:34;11.10;98.40
10986;DHT22;5546;48.714;8.738;2024-03-23T08:58:01;12.40;97.40
10986;DHT22;5546;48.714;8.738;2024-03-23T09:00:26;13.80;95.00
10986;DHT22;5546;48.714;8.738;2024-03-23T09:02:52;15.00;93.10
10986;DHT22;5546;48.714;8.738;2024-03-23T09:05:19;15.80;91.20
10986;DHT22;5546;48.714;8.738;2024-03-23T09:10:10;16.80;88.70
10986;DHT22;5546;48.714;8.738;2024-03-23T09:12:35;16.40;85.50
10986;DHT22;5546;48.714;8.738;2024-03-23T09:17:27;16.60;86.60
10986;DHT22;5546;48.714;8.738;2024-03-23T09:19:52;16.60;85.70
10986;DHT22;5546;48.714;8.738;2024-03-23T09:22:18;16.30;83.30
10986;DHT22;5546;48.714;8.738;2024-03-23T09:24:44;15.80;84.70
10986;DHT22;5546;48.714;8.738;2024-03-23T09:27:10;15.80;84.20
10986;DHT22;5546;48.714;8.738;2024-03-23T09:32:01;14.90;86.30
10986;DHT22;5546;48.714;8.738;2024-03-23T09:34:27;14.10;87.00
10986;DHT22;5546;48.714;8.738;2024-03-23T09:36:52;14.20;88.30
10986;DHT22;5546;48.714;8.738;2024-03-23T09:39:18;14.30;87.20
10986;DHT22;5546;48.714;8.738;2024-03-23T09:41:45;14.40;86.50
10986;DHT22;5546;48.714;8.738;2024-03-23T09:44:10;14.70;86.40
10986;DHT22;5546;48.714;8.738;2024-03-23T09:46:36;15.50;85.80
10986;DHT22;5546;48.714;8.738;2024-03-23T09:49:03;15.40;86.40
10986;DHT22;5546;48.714;8.738;2024-03-23T09:51:30;17.10;79.20
10986;DHT22;5546;48.714;8.738;2024-03-23T09:53:57;18.00;73.80
10986;DHT22;5546;48.714;8.738;2024-03-23T09:58:49;15.30;77.60
10986;DHT22;5546;48.714;8.738;2024-03-23T10:01:15;15.20;78.60
10986;DHT22;5546;48.714;8.738;2024-03-23T10:03:47;14.80;81.30
10986;DHT22;5546;48.714;8.738;2024-03-23T10:06:13;17.10;77.50
10986;DHT22;5546;48.714;8.738;2024-03-23T10:08:39;17.00;78.00
10986;DHT22;5546;48.714;8.738;2024-03-23T10:11:15;18.50;69.30
10986;DHT22;5546;48.714;8.738;2024-03-23T10:13:42;18.40;69.40
10986;DHT22;5546;48.714;8.738;2024-03-23T10:16:33;18.10;68.50
10986;DHT22;5546;48.714;8.738;2024-03-23T10:18:58;15.70;75.70
10986;DHT22;5546;48.714;8.738;2024-03-23T10:21:32;15.30;79.00
10986;DHT22;5546;48.714;8.738;2024-03-23T10:24:08;14.10;80.30
10986;DHT22;5546;48.714;8.738;2024-03-23T10:26:37;13.30;87.10
10986;DHT22;5546;48.714;8.738;2024-03-23T10:29:31;12.50;90.20
10986;DHT22;5546;48.714;8.738;2024-03-23T10:32:26;11.20;93.30
10986;DHT22;5546;48.714;8.738;2024-03-23T10:34:52;10.00;95.00
10986;DHT22;5546;48.714;8.738;2024-03-23T10:37:36;9.50;96.70
10986;DHT22;5546;48.714;8.738;2024-03-23T10:40:07;9.10;97.00
10986;DHT22;5546;48.714;8.738;2024-03-23T10:42:35;9.00;99.10
10986;DHT22;5546;48.714;8.738;2024-03-23T10:45:01;9.90;98.20
10986;DHT22;5546;48.714;8.738;2024-03-23T10:47:47;11.50;97.20
10986;DHT22;5546;48.714;8.738;2024-03-23T10:50:55;13.80;92.90
10986;DHT22;5546;48.714;8.738;2024-03-23T10:53:29;14.00;93.00
10986;DHT22;5546;48.714;8.738;2024-03-23T10:56:05;16.30;84.80
10986;DHT22;5546;48.714;8.738;2024-03-23T10:58:57;16.40;83.40
10986;DHT22;5546;48.714;8.738;2024-03-23T11:01:54;14.30;86.70
10986;DHT22;5546;48.714;8.738;2024-03-23T11:04:35;14.00;91.20
10986;DHT22;5546;48.714;8.738;2024-03-23T11:07:30;15.00;88.30
10986;DHT22;5546;48.714;8.738;2024-03-23T11:10:33;15.20;88.30
10986;DHT22;5546;48.714;8.738;2024-03-23T11:13:24;20.50;72.80
10986;DHT22;5546;48.714;8.738;2024-03-23T11:19:33;20.40;64.80
10986;DHT22;5546;48.714;8.738;2024-03-23T11:21:59;19.70;64.60
10986;DHT22;5546;48.714;8.738;2024-03-23T11:24:27;17.80;67.30
10986;DHT22;5546;48.714;8.738;2024-03-23T11:26:53;17.60;67.10
10986;DHT22;5546;48.714;8.738;2024-03-23T11:29:19;16.50;73.60
10986;DHT22;5546;48.714;8.738;2024-03-23T11:31:48;16.40;72.90
10986;DHT22;5546;48.714;8.738;2024-03-23T11:35:10;15.80;74.00
10986;DHT22;5546;48.714;8.738;2024-03-23T11:38:07;15.90;75.40
10986;DHT22;5546;48.714;8.738;2024-03-23T11:40:48;16.40;73.70
10986;DHT22;5546;48.714;8.738;2024-03-23T11:44:24;17.50;71.20
10986;DHT22;5546;48.714;8.738;2024-03-23T11:49:37;17.10;69.70
10986;DHT22;5546;48.714;8.738;2024-03-23T11:52:16;17.10;70.20
10986;DHT22;5546;48.714;8.738;2024-03-23T11:54:45;17.50;66.80
10986;DHT22;5546;48.714;8.738;2024-03-23T11:57:29;19.00;66.80
10986;DHT22;5546;48.714;8.738;2024-03-23T12:00:24;19.10;67.20
10986;DHT22;5546;48.714;8.738;2024-03-23T12:03:12;20.80;62.30
10986;DHT22;5546;48.714;8.738;2024-03-23T12:05:38;22.00;56.90
10986;DHT22;5546;48.714;8.738;2024-03-23T12:08:23;22.70;56.60
10986;DHT22;5546;48.714;8.738;2024-03-23T12:11:13;22.80;55.50
10986;DHT22;5546;48.714;8.738;2024-03-23T12:13:41;21.80;56.40
10986;DHT22;5546;48.714;8.738;2024-03-23T12:16:45;22.70;54.50
10986;DHT22;5546;48.714;8.738;2024-03-23T12:19:11;21.90;55.60
10986;DHT22;5546;48.714;8.738;2024-03-23T12:21:36;18.70;59.30
10986;DHT22;5546;48.714;8.738;2024-03-23T12:24:05;18.10;64.10
10986;DHT22;5546;48.714;8.738;2024-03-23T12:26:31;18.00;63.40
10986;DHT22;5546;48.714;8.738;2024-03-23T12:28:56;17.30;65.10
10986;DHT22;5546;48.714;8.738;2024-03-23T12:31:22;16.30;64.60
10986;DHT22;5546;48.714;8.738;2024-03-23T12:33:55;16.30;65.20
10986;DHT22;5546;48.714;8.738;2024-03-23T12:36:21;15.90;69.60
10986;DHT22;5546;48.714;8.738;2024-03-23T12:38:54;15.90;69.90
10986;DHT22;5546;48.714;8.738;2024-03-23T12:41:28;15.60;69.20
10986;DHT22;5546;48.714;8.738;2024-03-23T12:46:29;15.50;66.30
10986;DHT22;5546;48.714;8.738;2024-03-23T12:49:15;15.30;68.60
10986;DHT22;5546;48.714;8.738;2024-03-23T12:51:56;14.80;70.70
10986;DHT22;5546;48.714;8.738;2024-03-23T13:00:29;12.90;71.00
10986;DHT22;5546;48.714;8.738;2024-03-23T13:02:55;12.20;73.00
10986;DHT22;5546;48.714;8.738;2024-03-23T13:05:21;12.00;74.20
10986;DHT22;5546;48.714;8.738;2024-03-23T13:07:47;11.90;74.80
10986;DHT22;5546;48.714;8.738;2024-03-23T13:10:24;11.70;74.30
10986;DHT22;5546;48.714;8.738;2024-03-23T13:12:53;13.70;72.10
10986;DHT22;5546;48.714;8.738;2024-03-23T13:15:18;16.20;63.70
10986;DHT22;5546;48.714;8.738;2024-03-23T13:17:48;16.20;64.30
10986;DHT22;5546;48.714;8.738;2024-03-23T13:20:17;18.70;57.70
10986;DHT22;5546;48.714;8.738;2024-03-23T13:22:46;18.70;58.10
10986;DHT22;5546;48.714;8.738;2024-03-23T13:25:15;20.00;55.60
10986;DHT22;5546;48.714;8.738;2024-03-23T13:27:44;23.20;48.20
10986;DHT22;5546;48.714;8.738;2024-03-23T13:30:19;23.20;48.40
10986;DHT22;5546;48.714;8.738;2024-03-23T13:32:45;23.70;48.20
10986;DHT22;5546;48.714;8.738;2024-03-23T13:35:10;22.10;47.80
10986;DHT22;5546;48.714;8.738;2024-03-23T13:38:02;18.40;53.70
10986;DHT22;5546;48.714;8.738;2024-03-23T13:40:33;17.20;56.90
10986;DHT22;5546;48.714;8.738;2024-03-23T13:43:02;16.20;57.80
10986;DHT22;5546;48.714;8.738;2024-03-23T13:45:29;16.20;58.40
10986;DHT22;5546;48.714;8.738;2024-03-23T13:47:55;13.80;73.20
10986;DHT22;5546;48.714;8.738;2024-03-23T13:50:21;12.60;80.10
10986;DHT22;5546;48.714;8.738;2024-03-23T13:52:47;11.30;85.60
10986;DHT22;5546;48.714;8.738;2024-03-23T13:55:13;12.80;83.40
10986;DHT22;5546;48.714;8.738;2024-03-23T13:57:41;12.70;84.00
10986;DHT22;5546;48.714;8.738;2024-03-23T14:00:08;15.70;72.10
10986;DHT22;5546;48.714;8.738;2024-03-23T14:02:33;15.70;72.60
10986;DHT22;5546;48.714;8.738;2024-03-23T14:05:01;15.40;73.70
10986;DHT22;5546;48.714;8.738;2024-03-23T14:07:27;14.20;74.60
10986;DHT22;5546;48.714;8.738;2024-03-23T14:09:53;14.10;75.70
10986;DHT22;5546;48.714;8.738;2024-03-23T14:12:20;13.70;82.70
10986;DHT22;5546;48.714;8.738;2024-03-23T14:14:46;13.80;83.20
10986;DHT22;5546;48.714;8.738;2024-03-23T14:17:12;14.70;76.50
10986;DHT22;5546;48.714;8.738;2024-03-23T14:19:40;15.90;76.10
10986;DHT22;5546;48.714;8.738;2024-03-23T14:22:09;14.90;72.70
10986;DHT22;5546;48.714;8.738;2024-03-23T14:24:37;14.90;73.40
10986;DHT22;5546;48.714;8.738;2024-03-23T14:27:04;14.20;76.10
10986;DHT22;5546;48.714;8.738;2024-03-23T14:29:32;14.20;74.30
10986;DHT22;5546;48.714;8.738;2024-03-23T14:31:59;13.20;73.90
10986;DHT22;5546;48.714;8.738;2024-03-23T14:34:28;11.80;80.10
10986;DHT22;5546;48.714;8.738;2024-03-23T14:36:57;11.80;80.70
10986;DHT22;5546;48.714;8.738;2024-03-23T14:39:23;10.80;83.70
10986;DHT22;5546;48.714;8.738;2024-03-23T14:41:54;10.20;87.80
10986;DHT22;5546;48.714;8.738;2024-03-23T14:47:18;9.80;90.20
10986;DHT22;5546;48.714;8.738;2024-03-23T14:49:46;9.20;93.50
10986;DHT22;5546;48.714;8.738;2024-03-23T14:52:20;9.60;93.70
10986;DHT22;5546;48.714;8.738;2024-03-23T14:54:48;9.90;93.70
10986;DHT22;5546;48.714;8.738;2024-03-23T14:57:32;9.70;93.60
10986;DHT22;5546;48.714;8.738;2024-03-23T14:59:58;9.60;94.40
10986;DHT22;5546;48.714;8.738;2024-03-23T15:02:24;9.60;94.50
10986;DHT22;5546;48.714;8.738;2024-03-23T15:04:50;10.20;93.30
10986;DHT22;5546;48.714;8.738;2024-03-23T15:07:16;10.30;93.20
10986;DHT22;5546;48.714;8.738;2024-03-23T15:09:41;10.70;93.30
10986;DHT22;5546;48.714;8.738;2024-03-23T15:12:07;10.60;93.00
10986;DHT22;5546;48.714;8.738;2024-03-23T15:14:33;10.60;93.40
10986;DHT22;5546;48.714;8.738;2024-03-23T15:16:59;10.50;93.50
10986;DHT22;5546;48.714;8.738;2024-03-23T15:19:25;10.60;94.00
10986;DHT22;5546;48.714;8.738;2024-03-23T15:21:51;10.80;93.90
10986;DHT22;5546;48.714;8.738;2024-03-23T15:24:17;10.40;94.20
10986;DHT22;5546;48.714;8.738;2024-03-23T15:26:42;10.40;94.40
10986;DHT22;5546;48.714;8.738;2024-03-23T15:29:09;10.40;94.30
10986;DHT22;5546;48.714;8.738;2024-03-23T15:31:42;10.20;92.70
10986;DHT22;5546;48.714;8.738;2024-03-23T15:34:08;10.20;93.00
10986;DHT22;5546;48.714;8.738;2024-03-23T15:36:37;9.70;93.30
10986;DHT22;5546;48.714;8.738;2024-03-23T15:39:05;9.70;93.50
10986;DHT22;5546;48.714;8.738;2024-03-23T15:41:30;9.70;94.00
10986;DHT22;5546;48.714;8.738;2024-03-23T15:43:56;9.80;94.30
10986;DHT22;5546;48.714;8.738;2024-03-23T15:46:22;10.60;93.10
10986;DHT22;5546;48.714;8.738;2024-03-23T15:48:48;10.90;92.00
10986;DHT22;5546;48.714;8.738;2024-03-23T15:51:14;10.70;91.30
10986;DHT22;5546;48.714;8.738;2024-03-23T15:56:07;9.80;92.10
10986;DHT22;5546;48.714;8.738;2024-03-23T15:58:33;10.40;91.40
10986;DHT22;5546;48.714;8.738;2024-03-23T16:01:03;10.30;91.00
10986;DHT22;5546;48.714;8.738;2024-03-23T16:03:30;10.30;91.20
10986;DHT22;5546;48.714;8.738;2024-03-23T16:05:58;10.50;91.50
10986;DHT22;5546;48.714;8.738;2024-03-23T16:08:24;10.20;91.60
10986;DHT22;5546;48.714;8.738;2024-03-23T16:10:51;10.20;91.80
10986;DHT22;5546;48.714;8.738;2024-03-23T16:13:23;9.80;91.90
10986;DHT22;5546;48.714;8.738;2024-03-23T16:16:02;10.00;92.10
10986;DHT22;5546;48.714;8.738;2024-03-23T16:18:36;10.00;92.30
10986;DHT22;5546;48.714;8.738;2024-03-23T16:21:06;9.90;91.70
10986;DHT22;5546;48.714;8.738;2024-03-23T16:23:33;10.00;92.30
10986;DHT22;5546;48.714;8.738;2024-03-23T16:26:15;10.30;92.70
10986;DHT22;5546;48.714;8.738;2024-03-23T16:32:53;10.00;92.80
10986;DHT22;5546;48.714;8.738;2024-03-23T16:35:28;10.20;92.80
10986;DHT22;5546;48.714;8.738;2024-03-23T17:05:17;9.60;98.10
10986;DHT22;5546;48.714;8.738;2024-03-23T17:08:10;9.90;97.70
10986;DHT22;5546;48.714;8.738;2024-03-23T17:16:47;9.00;98.90
10986;DHT22;5546;48.714;8.738;2024-03-23T17:19:21;9.00;99.30
10986;DHT22;5546;48.714;8.738;2024-03-23T17:21:49;9.00;98.70
10986;DHT22;5546;48.714;8.738;2024-03-23T17:26:53;8.00;98.40
10986;DHT22;5546;48.714;8.738;2024-03-23T17:29:19;7.80;99.30
10986;DHT22;5546;48.714;8.738;2024-03-23T17:31:54;8.00;99.70
10986;DHT22;5546;48.714;8.738;2024-03-23T17:34:20;8.10;97.70
10986;DHT22;5546;48.714;8.738;2024-03-23T17:36:46;8.10;97.40
10986;DHT22;5546;48.714;8.738;2024-03-23T17:39:14;8.20;97.80
10986;DHT22;5546;48.714;8.738;2024-03-23T17:41:55;8.40;97.70
10986;DHT22;5546;48.714;8.738;2024-03-23T17:47:44;8.40;97.40
10986;DHT22;5546;48.714;8.738;2024-03-23T17:50:10;8.30;98.10
10986;DHT22;5546;48.714;8.738;2024-03-23T17:55:48;7.90;98.90
10986;DHT22;5546;48.714;8.738;2024-03-23T17:58:19;7.90;99.30
10986;DHT22;5546;48.714;8.738;2024-03-23T18:04:14;7.60;99.90
10986;DHT22;5546;48.714;8.738;2024-03-23T18:06:49;7.40;99.90
10986;DHT22;5546;48.714;8.738;2024-03-23T18:09:18;7.50;99.90
10986;DHT22;5546;48.714;8.738;2024-03-23T18:12:01;7.40;99.80
10986;DHT22;5546;48.714;8.738;2024-03-23T18:14:36;7.30;99.90
10986;DHT22;5546;48.714;8.738;2024-03-23T18:17:19;7.70;99.90
10986;DHT22;5546;48.714;8.738;2024-03-23T18:23:37;7.60;99.70
10986;DHT22;5546;48.714;8.738;2024-03-23T18:26:11;7.90;99.90
10986;DHT22;5546;48.714;8.738;2024-03-23T18:28:43;7.90;99.90
10986;DHT22;5546;48.714;8.738;2024-03-23T18:31:34;7.90;99.90
10986;DHT22;5546;48.714;8.738;2024-03-23T18:34:02;8.10;99.90
10986;DHT22;5546;48.714;8.738;2024-03-23T18:39:34;7.70;99.90
10986;DHT22;5546;48.714;8.738;2024-03-23T18:42:53;8.10;99.90
10986;DHT22;5546;48.714;8.738;2024-03-23T18:48:46;8.00;99.90
10986;DHT22;5546;48.714;8.738;2024-03-23T18:51:39;8.10;99.90
10986;DHT22;5546;48.714;8.738;2024-03-23T18:54:16;7.80;99.90
10986;DHT22;5546;48.714;8.738;2024-03-23T18:56:56;7.40;99.90
10986;DHT22;5546;48.714;8.738;2024-03-23T18:59:54;6.80;99.90
10986;DHT22;5546;48.714;8.738;2024-03-23T19:05:03;6.60;99.90
10986;DHT22;5546;48.714;8.738;2024-03-23T19:10:20;7.20;99.90